Elba, Idaho
Current Conditions -  °F | °C
As of 2:53 AM on Friday 19 Dec 2014 (Local Time) from KBYI Reporting Station
Overcast Overcast  
Wind Chill:   Ceiling: 9500
Heat Index:   Visibility: 10mi
Dew Point: -3°   Wind: 13mph
Humidity: 62%   Direction: 200°SSW
Pressure: 30.1"   Gusts: NA
Location:  42.25°N, 113.56°W
Report Text: KBYI 190953Z AUTO 20011KT 10SM OVC095 04/M03 A3010 RMK AO2 SLP192 T00391028
Loading
Personal Weather Stations






























Interactive Weather Map New forecast layout! Learn more

10-Day Weather Forecast

Advertisements
Track Severe Weather on mobile